logo
Search for airport 
image banner adimage banner adimage banner ad
image banner ad

ED1647 - Troisdorf-Sieglar St. Johannes-Krhs.

Located in Sieglar, Germany

ICAO - , IATA -

Data provided by Airmate  

General information

Coordinates: N50°47'49" E7°7'5"
Elevation is 187 feet MSL.
 
View others Airports in North Rhine-Westphalia

Operational data

Special qualification required
Current time UTC:
Current local time:
Weather at : EDDK - Koeln/Bonn ( 8 km )
METAR: EDDK 231650Z AUTO 27015KT 9999 FEW049 23/13 Q1017 NOSIG
TAF: TAF EDDK 231100Z 2312/2418 26012KT 9999 BKN025 TEMPO 2312/2319 SHRA BKN020CB PROB30 TEMPO 2315/2319 30015G30KT 3000 +TSRA BKN014CB BECMG 2318/2321 30007KT BECMG 2400/2403 BKN010 TEMPO 2403/2407 BKN007 BECMG 2406/2409 SCT010 BKN020
View NOTAMs / SUP AIP / TFR affecting this airport [VIEW]
Communications frequencies: [VIEW]

Runways:

Airport contact information

Address: Sieglar Germany

Satellite view of ED1647